Time;durP1;ratioP1;P1;durP2;ratioP2;P2;SDS_P1;SDS_P2;PMS_P1;PMS_P2;Temp;Humidity;BMP_temperature;BMP_pressure;BME280_temperature;BME280_humidity;BME280_pressure;Samples;Min_cycle;Max_cycle;Signal;HPM_P1;HPM_P2
2022/06/28 00:00:06;;;;;;;1.98;1.35;;;;;;;18.63;100.00;101694.97;20955345;28;20073;-75
2022/06/28 00:10:10;;;;;;;1.67;1.35;;;;;;;18.67;100.00;101700.97;20948453;28;20043;-75
2022/06/28 00:20:12;;;;;;;1.20;1.10;;;;;;;18.65;100.00;101682.22;20965839;28;20044;-75
2022/06/28 00:30:13;;;;;;;1.33;1.23;;;;;;;18.65;100.00;101706.50;20964681;28;20041;-75
2022/06/28 00:40:15;;;;;;;1.20;1.10;;;;;;;18.65;100.00;101702.94;20946309;28;20051;-75
2022/06/28 00:50:18;;;;;;;2.38;1.33;;;;;;;18.64;100.00;101703.91;20964030;28;20390;-76
2022/06/28 01:00:19;;;;;;;1.20;1.10;;;;;;;18.49;100.00;101681.72;20948455;28;20048;-78
2022/06/28 01:10:23;;;;;;;1.15;1.05;;;;;;;18.54;100.00;101712.75;20962761;28;20049;-78
2022/06/28 01:20:25;;;;;;;1.25;1.15;;;;;;;18.62;100.00;101725.63;20978592;28;20044;-75
2022/06/28 01:30:41;;;;;;;1.20;1.10;;;;;;;18.55;100.00;101718.97;20894736;28;20045;-75
2022/06/28 01:40:55;;;;;;;2.25;1.25;;;;;;;18.50;100.00;101719.34;20893692;28;20425;-75
2022/06/28 01:50:57;;;;;;;1.30;1.20;;;;;;;18.36;100.00;101695.31;20895053;28;20102;-75
2022/06/28 02:00:59;;;;;;;1.27;1.17;;;;;;;18.49;100.00;101720.34;20916832;28;20136;-75
2022/06/28 02:11:02;;;;;;;1.30;1.20;;;;;;;18.60;100.00;101754.56;20973816;28;20553;-75
2022/06/28 02:21:24;;;;;;;1.02;0.90;;;;;;;18.59;100.00;101758.22;20974739;28;20558;-75
2022/06/28 02:31:26;;;;;;;1.55;0.90;;;;;;;18.60;100.00;101759.06;20972396;28;20123;-75
2022/06/28 02:41:29;;;;;;;1.00;0.90;;;;;;;18.59;100.00;101768.16;20955828;28;20051;-75
2022/06/28 02:51:31;;;;;;;1.00;1.00;;;;;;;18.58;100.00;101780.78;20971294;28;20051;-75
2022/06/28 03:01:33;;;;;;;1.27;1.10;;;;;;;18.58;100.00;101785.31;20958406;28;20062;-75
2022/06/28 03:11:35;;;;;;;0.80;0.80;;;;;;;18.56;100.00;101785.44;20969079;28;20041;-75
2022/06/28 03:21:37;;;;;;;1.00;1.00;;;;;;;18.55;100.00;101799.88;20936155;28;20044;-75
2022/06/28 03:31:39;;;;;;;0.95;0.95;;;;;;;18.55;100.00;101795.34;20968159;28;20127;-75
2022/06/28 03:41:41;;;;;;;1.63;1.10;;;;;;;18.55;100.00;101789.09;20950119;28;20118;-75
2022/06/28 03:51:45;;;;;;;1.08;1.08;;;;;;;18.55;100.00;101799.88;20965251;28;20072;-75
2022/06/28 04:01:55;;;;;;;0.80;0.80;;;;;;;18.53;100.00;101808.09;20950832;28;20492;-75
2022/06/28 04:11:59;;;;;;;1.52;0.90;;;;;;;18.51;100.00;101809.19;20963583;28;20048;-75
2022/06/28 04:22:00;;;;;;;0.90;0.90;;;;;;;18.53;100.00;101826.09;20930864;28;20052;-75
2022/06/28 04:32:03;;;;;;;4.28;3.58;;;;;;;18.22;95.74;101788.03;20815050;28;20045;-77
2022/06/28 04:42:06;;;;;;;4.80;4.30;;;;;;;18.20;94.80;101819.63;20767308;28;20389;-76
2022/06/28 04:52:11;;;;;;;7.97;5.03;;;;;;;18.06;94.98;101829.59;20838303;28;20063;-76
2022/06/28 05:02:17;;;;;;;5.28;4.78;;;;;;;17.95;95.00;101821.44;20763585;28;20064;-76
2022/06/28 05:12:20;;;;;;;7.80;5.10;;;;;;;17.82;96.13;101811.56;20790323;28;20073;-76
2022/06/28 05:22:24;;;;;;;8.40;5.70;;;;;;;17.87;98.06;101826.53;20791333;28;20037;-77
2022/06/28 05:32:48;;;;;;;8.32;5.60;;;;;;;17.87;97.82;101831.91;20790496;28;20593;-75
2022/06/28 05:42:50;;;;;;;7.75;5.50;;;;;;;17.83;97.81;101842.03;20787524;28;20041;-75
2022/06/28 05:52:52;;;;;;;5.80;4.80;;;;;;;17.81;98.07;101847.56;20815313;28;20090;-77
2022/06/28 06:02:54;;;;;;;7.75;5.38;;;;;;;17.79;98.25;101841.44;20789109;28;20046;-78
2022/06/28 06:12:55;;;;;;;7.70;5.28;;;;;;;17.77;98.78;101853.28;20790162;28;20052;-78
2022/06/28 06:22:57;;;;;;;8.10;3.70;;;;;;;17.84;98.95;101859.91;20783508;28;20152;-78
2022/06/28 06:33:31;;;;;;;7.45;3.78;;;;;;;17.88;99.30;101868.66;20832088;28;20080;-78
2022/06/28 06:43:41;;;;;;;9.00;3.97;;;;;;;17.92;99.84;101879.09;20796927;28;20505;-77
2022/06/28 06:53:48;;;;;;;4.90;3.47;;;;;;;17.96;100.00;101885.09;20788039;28;20139;-77
2022/06/28 07:03:50;;;;;;;6.40;3.50;;;;;;;17.99;100.00;101890.28;20804548;28;20075;-77
2022/06/28 07:13:52;;;;;;;5.80;3.03;;;;;;;17.91;100.00;101872.00;20858338;28;20397;-77
2022/06/28 07:23:53;;;;;;;7.63;3.15;;;;;;;18.05;100.00;101886.31;20886122;28;20094;-78
2022/06/28 07:33:59;;;;;;;6.53;2.30;;;;;;;18.16;100.00;101886.38;20883919;28;20052;-78
2022/06/28 07:44:01;;;;;;;6.32;2.88;;;;;;;18.34;99.88;101894.91;20891468;28;20079;-77
2022/06/28 07:54:05;;;;;;;4.32;2.92;;;;;;;18.44;99.26;101894.22;20883323;28;20741;-77
2022/06/28 08:04:35;;;;;;;10.02;2.88;;;;;;;18.58;98.60;101875.16;20876698;28;20438;-77
2022/06/28 08:14:39;;;;;;;5.97;1.98;;;;;;;18.68;97.13;101880.69;20849081;28;20114;-77
2022/06/28 08:24:41;;;;;;;5.53;1.70;;;;;;;18.79;97.04;101877.19;20846902;28;20056;-76
2022/06/28 08:34:44;;;;;;;3.03;1.35;;;;;;;18.86;96.44;101882.97;20761936;28;20444;-77
2022/06/28 08:44:47;;;;;;;4.35;1.33;;;;;;;18.89;95.61;101883.59;20824025;28;20049;-77
2022/06/28 08:54:51;;;;;;;4.18;1.40;;;;;;;18.94;95.65;101864.34;20866266;28;20059;-77
2022/06/28 09:04:54;;;;;;;4.23;1.63;;;;;;;18.96;95.37;101857.84;20871028;28;20037;-75
2022/06/28 09:14:57;;;;;;;4.85;1.13;;;;;;;18.97;94.77;101858.72;20873339;28;20493;-75
2022/06/28 09:25:00;;;;;;;1.90;1.00;;;;;;;18.96;93.72;101860.53;20856380;28;20134;-74
2022/06/28 09:35:03;;;;;;;2.20;1.20;;;;;;;18.96;93.43;101843.50;20855648;28;20068;-74
2022/06/28 09:45:05;;;;;;;3.70;0.95;;;;;;;18.95;92.94;101845.31;20830701;28;20040;-74
2022/06/28 09:55:07;;;;;;;3.00;0.90;;;;;;;18.93;91.79;101841.03;20860256;28;20073;-74
2022/06/28 10:05:13;;;;;;;4.90;1.42;;;;;;;18.92;90.87;101837.47;20862482;28;20040;-74
2022/06/28 10:15:20;;;;;;;5.25;0.95;;;;;;;18.92;90.75;101823.97;20871160;28;20516;-74
2022/06/28 10:25:22;;;;;;;3.63;0.90;;;;;;;18.91;90.92;101833.06;20869312;28;20123;-74
2022/06/28 10:35:33;;;;;;;3.65;1.00;;;;;;;18.90;90.27;101814.31;20887876;28;20120;-74
2022/06/28 10:46:05;;;;;;;2.42;0.90;;;;;;;18.87;89.83;101803.75;20880163;28;20420;-74
2022/06/28 10:56:12;;;;;;;2.05;0.70;;;;;;;18.86;89.81;101824.47;20877937;28;20049;-74
2022/06/28 11:06:22;;;;;;;6.45;0.90;;;;;;;18.82;88.91;101807.69;20883959;28;20045;-75
2022/06/28 11:16:43;;;;;;;2.22;0.80;;;;;;;18.84;88.00;101810.25;20889194;28;20409;-75
2022/06/28 11:37:08;;;;;;;0.75;0.55;;;;;;;18.86;87.33;101792.09;20796113;28;20049;-74
2022/06/28 11:47:10;;;;;;;1.93;0.60;;;;;;;18.79;86.46;101786.34;20870245;28;20099;-74
2022/06/28 11:57:14;;;;;;;2.63;1.00;;;;;;;18.88;85.28;101794.69;20871793;28;20051;-74
2022/06/28 12:07:33;;;;;;;3.13;1.13;;;;;;;18.87;84.97;101792.97;20857981;28;20049;-74
2022/06/28 12:17:46;;;;;;;1.65;0.77;;;;;;;18.87;84.86;101793.81;20844467;28;20405;-74
2022/06/28 12:27:48;;;;;;;2.53;0.80;;;;;;;18.88;84.81;101789.28;20783518;28;20049;-75
2022/06/28 12:37:50;;;;;;;5.10;1.00;;;;;;;18.89;84.47;101775.66;20796147;28;20045;-75
2022/06/28 12:47:52;;;;;;;3.63;1.02;;;;;;;18.92;83.51;101774.56;20795038;28;20041;-75
2022/06/28 12:57:53;;;;;;;5.10;1.23;;;;;;;18.94;82.92;101773.44;20793779;28;20448;-75
2022/06/28 13:07:56;;;;;;;3.47;1.00;;;;;;;18.96;82.66;101776.03;20798567;28;20056;-75
2022/06/28 13:17:58;;;;;;;2.63;0.80;;;;;;;18.98;81.25;101766.00;20847018;28;20166;-77
2022/06/28 13:28:00;;;;;;;2.92;0.70;;;;;;;18.98;81.21;101756.06;20892439;28;20064;-77
2022/06/28 13:38:01;;;;;;;2.58;0.90;;;;;;;18.93;80.65;101739.34;20892584;28;20071;-75
2022/06/28 13:48:03;;;;;;;2.47;0.63;;;;;;;19.01;81.26;101751.44;20888400;28;20138;-75
2022/06/28 13:58:07;;;;;;;2.80;0.70;;;;;;;19.01;81.58;101724.44;20797578;28;20107;-74
2022/06/28 14:08:09;;;;;;;2.53;0.73;;;;;;;19.01;80.23;101716.34;20845571;28;20041;-74
2022/06/28 14:18:11;;;;;;;1.80;0.75;;;;;;;19.02;80.83;101720.75;20874410;28;20114;-74
2022/06/28 14:28:12;;;;;;;6.07;0.90;;;;;;;18.93;80.22;101703.44;20803207;28;20135;-73
2022/06/28 14:38:18;;;;;;;2.03;0.68;;;;;;;19.01;80.09;101711.78;20783609;28;20405;-76
2022/06/28 14:48:20;;;;;;;3.08;0.63;;;;;;;19.01;81.26;101719.06;20777696;28;20110;-75
2022/06/28 14:58:22;;;;;;;3.95;1.08;;;;;;;18.96;81.10;101712.13;20778979;28;20131;-74
2022/06/28 15:08:33;;;;;;;3.97;0.88;;;;;;;18.84;81.21;101692.41;20829489;28;20053;-75
2022/06/28 15:18:35;;;;;;;5.35;1.10;;;;;;;18.93;80.58;101695.34;20810709;28;20045;-74
2022/06/28 15:38:56;;;;;;;6.72;2.80;;;;;;;18.91;80.55;101684.66;20858117;28;20128;-75
2022/06/28 15:48:58;;;;;;;13.63;4.38;;;;;;;18.92;79.34;101666.66;20822208;28;20395;-76
2022/06/28 15:59:00;;;;;;;8.52;3.33;;;;;;;18.92;78.40;101656.69;20813697;28;20044;-75
2022/06/28 16:09:01;;;;;;;9.27;2.45;;;;;;;18.78;77.21;101619.19;20856522;28;20077;-73
2022/06/28 16:19:03;;;;;;;3.50;1.63;;;;;;;18.93;78.52;101625.19;20858092;28;20099;-75
2022/06/28 16:29:25;;;;;;;6.28;2.45;;;;;;;18.93;79.53;101619.78;20862988;28;20068;-75
2022/06/28 16:39:27;;;;;;;4.85;1.83;;;;;;;18.89;79.72;101616.47;20865412;28;20053;-75
2022/06/28 16:49:29;;;;;;;5.75;1.80;;;;;;;18.91;80.08;101617.22;20814254;28;20506;-75
2022/06/28 16:59:30;;;;;;;5.47;1.77;;;;;;;18.93;80.36;101609.00;20787244;28;20100;-75
2022/06/28 17:09:32;;;;;;;5.80;1.92;;;;;;;18.90;80.45;101603.88;20792591;28;20045;-75
2022/06/28 17:19:33;;;;;;;7.75;2.42;;;;;;;18.95;80.60;101615.13;20794475;28;20397;-75
2022/06/28 17:29:35;;;;;;;4.85;2.28;;;;;;;18.93;81.04;101607.16;20776874;28;20045;-75
2022/06/28 17:39:37;;;;;;;5.22;2.50;;;;;;;18.93;81.04;101599.06;20859753;28;20132;-75
2022/06/28 17:49:39;;;;;;;7.00;2.13;;;;;;;18.90;81.26;101604.69;20863558;28;20060;-76
2022/06/28 17:59:40;;;;;;;5.38;2.40;;;;;;;18.68;81.12;101568.72;20806229;28;20482;-75
2022/06/28 18:09:42;;;;;;;5.72;2.83;;;;;;;18.73;81.21;101581.81;20803656;28;20057;-75
2022/06/28 18:19:44;;;;;;;4.85;2.10;;;;;;;18.86;81.25;101603.25;20805198;28;20132;-76
2022/06/28 18:29:45;;;;;;;5.80;2.05;;;;;;;18.77;81.19;101587.81;20803273;28;20061;-76
2022/06/28 18:39:47;;;;;;;4.53;1.95;;;;;;;18.84;81.59;101616.00;20802631;28;20060;-76
2022/06/28 18:49:50;;;;;;;5.40;1.90;;;;;;;18.68;82.30;101592.97;20835648;28;20045;-75
2022/06/28 18:59:51;;;;;;;4.47;1.80;;;;;;;18.75;82.94;101595.19;20803379;28;20050;-76
2022/06/28 19:09:53;;;;;;;4.07;2.10;;;;;;;18.73;83.36;101592.59;20803200;28;20501;-76
2022/06/28 19:19:55;;;;;;;4.43;2.13;;;;;;;18.82;83.67;101607.19;20799889;28;20073;-76
2022/06/28 19:29:56;;;;;;;3.85;1.83;;;;;;;18.81;83.74;101594.66;20775588;28;20054;-76
2022/06/28 19:40:01;;;;;;;3.42;1.95;;;;;;;18.65;83.96;101563.56;20803820;28;20077;-75
2022/06/28 19:50:03;;;;;;;5.18;2.08;;;;;;;18.80;84.26;101601.03;20800639;28;20045;-76
2022/06/28 20:00:08;;;;;;;3.47;1.60;;;;;;;18.61;84.59;101564.81;20798705;28;20041;-76
2022/06/28 20:10:13;;;;;;;4.70;1.88;;;;;;;18.78;85.19;101606.59;20881271;28;20083;-75
2022/06/28 20:20:14;;;;;;;4.28;1.88;;;;;;;18.75;85.41;101592.47;20881978;28;20053;-76
2022/06/28 20:30:16;;;;;;;2.70;1.30;;;;;;;18.77;85.72;101580.56;20864422;28;20572;-76
2022/06/28 20:40:18;;;;;;;2.85;1.45;;;;;;;18.68;85.82;101571.41;20903726;28;20053;-76
2022/06/28 20:50:20;;;;;;;2.55;1.40;;;;;;;18.77;86.34;101575.16;20877630;28;20048;-76
2022/06/28 21:00:21;;;;;;;2.30;1.10;;;;;;;18.76;85.99;101573.47;20840986;28;20049;-76
2022/06/28 21:10:23;;;;;;;1.63;1.08;;;;;;;18.76;86.18;101567.22;20792997;28;20041;-76
2022/06/28 21:20:25;;;;;;;4.75;1.42;;;;;;;18.76;86.25;101575.31;20793398;28;20053;-76
2022/06/28 21:30:26;;;;;;;2.47;1.20;;;;;;;18.59;86.46;101552.41;20832183;28;20380;-76
2022/06/28 21:40:29;;;;;;;3.17;1.17;;;;;;;18.75;86.50;101582.53;20890641;28;20052;-76
2022/06/28 21:50:30;;;;;;;2.05;1.20;;;;;;;18.75;86.62;101581.69;20890706;28;20063;-76
2022/06/28 22:00:37;;;;;;;2.08;1.20;;;;;;;18.74;86.55;101590.75;20834428;28;20060;-76
2022/06/28 22:10:38;;;;;;;2.17;1.00;;;;;;;18.74;86.92;101588.06;20808277;28;20087;-76
2022/06/28 22:20:40;;;;;;;2.33;1.05;;;;;;;18.73;87.03;101586.34;20791877;28;20514;-76
2022/06/28 22:30:42;;;;;;;1.92;1.17;;;;;;;18.45;87.01;101535.53;20853653;28;20066;-75
2022/06/28 22:40:43;;;;;;;1.60;0.90;;;;;;;18.60;87.07;101560.41;20970965;28;20405;-75
2022/06/28 22:50:46;;;;;;;1.55;1.00;;;;;;;18.67;86.94;101553.50;20971199;28;20102;-75
2022/06/28 23:00:47;;;;;;;1.75;0.90;;;;;;;18.66;87.05;101554.50;20970981;28;20654;-76
2022/06/28 23:10:58;;;;;;;1.63;0.88;;;;;;;18.70;86.59;101555.09;20971059;28;20048;-76
2022/06/28 23:20:59;;;;;;;1.27;0.88;;;;;;;18.63;86.53;101543.97;20972846;28;20489;-76
2022/06/28 23:31:01;;;;;;;1.63;1.00;;;;;;;18.64;86.63;101529.50;20952437;28;20040;-76
2022/06/28 23:41:04;;;;;;;2.08;1.00;;;;;;;18.67;86.47;101534.63;20967699;28;20501;-76
2022/06/28 23:51:05;;;;;;;1.10;0.75;;;;;;;18.67;86.31;101518.44;20966644;28;20084;-76
